sensor_id;sensor_type;location;lat;lon;timestamp;pressure;altitude;pressure_sealevel;temperature;humidity
65013;BME280;51715;39.432;-77.518;2023-01-01T00:00:46;99066.23;;;15.01;47.97
65013;BME280;51715;39.432;-77.518;2023-01-01T00:03:14;99043.28;;;14.99;48.26
65013;BME280;51715;39.432;-77.518;2023-01-01T00:05:42;99051.17;;;15.10;48.29
65013;BME280;51715;39.432;-77.518;2023-01-01T00:08:09;99059.50;;;14.83;48.60
65013;BME280;51715;39.432;-77.518;2023-01-01T00:10:38;99074.09;;;14.93;48.69
65013;BME280;51715;39.432;-77.518;2023-01-01T00:13:07;99072.91;;;15.03;48.65
65013;BME280;51715;39.432;-77.518;2023-01-01T00:15:35;99071.76;;;15.12;48.45
65013;BME280;51715;39.432;-77.518;2023-01-01T00:18:04;99080.50;;;15.06;48.48
65013;BME280;51715;39.432;-77.518;2023-01-01T00:20:34;99095.96;;;14.88;48.40
65013;BME280;51715;39.432;-77.518;2023-01-01T00:23:02;99114.55;;;14.84;48.79
65013;BME280;51715;39.432;-77.518;2023-01-01T00:25:31;99117.72;;;14.92;49.21
65013;BME280;51715;39.432;-77.518;2023-01-01T00:27:59;99121.32;;;15.04;49.29
65013;BME280;51715;39.432;-77.518;2023-01-01T00:30:28;99105.12;;;14.80;49.76
65013;BME280;51715;39.432;-77.518;2023-01-01T00:32:55;99086.29;;;14.29;50.30
65013;BME280;51715;39.432;-77.518;2023-01-01T00:35:25;99082.67;;;14.68;50.04
65013;BME280;51715;39.432;-77.518;2023-01-01T00:37:54;99087.75;;;14.59;49.63
65013;BME280;51715;39.432;-77.518;2023-01-01T00:40:24;99111.72;;;13.99;52.61
65013;BME280;51715;39.432;-77.518;2023-01-01T00:42:52;99105.63;;;13.76;52.89
65013;BME280;51715;39.432;-77.518;2023-01-01T00:45:21;99092.04;;;14.47;51.98
65013;BME280;51715;39.432;-77.518;2023-01-01T00:47:50;99100.15;;;14.61;51.12
65013;BME280;51715;39.432;-77.518;2023-01-01T00:50:20;99099.97;;;14.88;50.96
65013;BME280;51715;39.432;-77.518;2023-01-01T00:52:50;99093.82;;;14.91;50.42
65013;BME280;51715;39.432;-77.518;2023-01-01T00:55:19;99092.43;;;14.91;49.51
65013;BME280;51715;39.432;-77.518;2023-01-01T00:57:47;99081.09;;;15.07;49.53
65013;BME280;51715;39.432;-77.518;2023-01-01T01:00:16;99062.94;;;15.12;49.13
65013;BME280;51715;39.432;-77.518;2023-01-01T01:02:44;99054.99;;;15.17;48.92
65013;BME280;51715;39.432;-77.518;2023-01-01T01:05:12;99054.99;;;15.07;48.83
65013;BME280;51715;39.432;-77.518;2023-01-01T01:07:41;99058.70;;;14.89;49.55
65013;BME280;51715;39.432;-77.518;2023-01-01T01:10:09;99058.81;;;14.26;50.72
65013;BME280;51715;39.432;-77.518;2023-01-01T01:12:38;99070.37;;;14.34;51.07
65013;BME280;51715;39.432;-77.518;2023-01-01T01:15:07;99068.17;;;14.34;50.64
65013;BME280;51715;39.432;-77.518;2023-01-01T01:17:36;99065.74;;;14.82;50.21
65013;BME280;51715;39.432;-77.518;2023-01-01T01:20:05;99050.01;;;14.79;49.54
65013;BME280;51715;39.432;-77.518;2023-01-01T01:22:35;99042.71;;;14.98;48.83
65013;BME280;51715;39.432;-77.518;2023-01-01T01:25:04;99028.21;;;14.64;48.60
65013;BME280;51715;39.432;-77.518;2023-01-01T01:27:32;99024.66;;;14.57;48.93
65013;BME280;51715;39.432;-77.518;2023-01-01T01:30:01;99017.33;;;14.53;49.25
65013;BME280;51715;39.432;-77.518;2023-01-01T01:32:29;99011.83;;;14.58;49.11
65013;BME280;51715;39.432;-77.518;2023-01-01T01:34:57;99013.93;;;14.84;49.27
65013;BME280;51715;39.432;-77.518;2023-01-01T01:37:25;99016.99;;;14.73;48.99
65013;BME280;51715;39.432;-77.518;2023-01-01T01:39:54;99021.09;;;14.56;48.97
65013;BME280;51715;39.432;-77.518;2023-01-01T01:42:22;99026.31;;;14.82;48.96
65013;BME280;51715;39.432;-77.518;2023-01-01T01:44:54;99027.92;;;14.47;48.98
65013;BME280;51715;39.432;-77.518;2023-01-01T01:47:28;99031.92;;;14.91;48.61
65013;BME280;51715;39.432;-77.518;2023-01-01T01:50:03;99045.61;;;14.81;48.53
65013;BME280;51715;39.432;-77.518;2023-01-01T01:52:36;99048.66;;;14.86;48.29
65013;BME280;51715;39.432;-77.518;2023-01-01T01:55:08;99051.47;;;15.06;48.21
65013;BME280;51715;39.432;-77.518;2023-01-01T01:57:37;99044.60;;;15.26;48.33
65013;BME280;51715;39.432;-77.518;2023-01-01T02:00:07;99035.11;;;14.99;47.92
65013;BME280;51715;39.432;-77.518;2023-01-01T02:02:39;99037.97;;;14.89;48.08
65013;BME280;51715;39.432;-77.518;2023-01-01T02:05:11;99044.57;;;14.76;48.56
65013;BME280;51715;39.432;-77.518;2023-01-01T02:07:39;99051.98;;;14.82;48.81
65013;BME280;51715;39.432;-77.518;2023-01-01T02:10:09;99056.78;;;14.91;48.93
65013;BME280;51715;39.432;-77.518;2023-01-01T02:12:38;99056.60;;;15.18;48.80
65013;BME280;51715;39.432;-77.518;2023-01-01T02:15:08;99047.95;;;14.99;48.49
65013;BME280;51715;39.432;-77.518;2023-01-01T02:17:43;99055.27;;;14.91;47.47
65013;BME280;51715;39.432;-77.518;2023-01-01T02:20:29;99052.49;;;14.78;47.53
65013;BME280;51715;39.432;-77.518;2023-01-01T02:23:28;99029.17;;;14.71;47.74
65013;BME280;51715;39.432;-77.518;2023-01-01T02:27:16;99023.95;;;14.49;48.39
65013;BME280;51715;39.432;-77.518;2023-01-01T02:29:51;99032.62;;;14.82;48.92
65013;BME280;51715;39.432;-77.518;2023-01-01T02:32:24;99036.24;;;14.40;49.22
65013;BME280;51715;39.432;-77.518;2023-01-01T02:34:59;99031.33;;;14.60;50.07
65013;BME280;51715;39.432;-77.518;2023-01-01T02:37:29;99033.21;;;14.81;49.84
65013;BME280;51715;39.432;-77.518;2023-01-01T02:40:00;99041.30;;;14.93;48.98
65013;BME280;51715;39.432;-77.518;2023-01-01T02:42:29;99035.95;;;14.94;48.14
65013;BME280;51715;39.432;-77.518;2023-01-01T02:44:59;99027.91;;;14.68;48.13
65013;BME280;51715;39.432;-77.518;2023-01-01T02:47:27;99027.12;;;14.81;47.56
65013;BME280;51715;39.432;-77.518;2023-01-01T02:50:01;99033.83;;;14.32;47.86
65013;BME280;51715;39.432;-77.518;2023-01-01T02:52:46;99033.46;;;14.84;48.40
65013;BME280;51715;39.432;-77.518;2023-01-01T02:55:27;99022.94;;;14.69;48.54
65013;BME280;51715;39.432;-77.518;2023-01-01T02:58:03;99021.27;;;14.76;48.53
65013;BME280;51715;39.432;-77.518;2023-01-01T03:00:34;99021.88;;;14.53;48.36
65013;BME280;51715;39.432;-77.518;2023-01-01T03:03:14;99021.94;;;14.62;48.56
65013;BME280;51715;39.432;-77.518;2023-01-01T03:05:51;99022.45;;;14.76;48.36
65013;BME280;51715;39.432;-77.518;2023-01-01T03:08:29;99020.19;;;14.88;47.95
65013;BME280;51715;39.432;-77.518;2023-01-01T03:11:02;99016.67;;;15.08;47.76
65013;BME280;51715;39.432;-77.518;2023-01-01T03:13:39;99017.22;;;14.64;47.61
65013;BME280;51715;39.432;-77.518;2023-01-01T03:16:12;99015.80;;;14.52;48.25
65013;BME280;51715;39.432;-77.518;2023-01-01T03:18:49;99011.71;;;14.55;48.26
65013;BME280;51715;39.432;-77.518;2023-01-01T03:21:21;99011.32;;;14.82;48.00
65013;BME280;51715;39.432;-77.518;2023-01-01T03:23:51;99022.76;;;14.53;47.46
65013;BME280;51715;39.432;-77.518;2023-01-01T03:26:22;99029.11;;;14.66;47.09
65013;BME280;51715;39.432;-77.518;2023-01-01T03:28:55;99025.82;;;14.62;47.06
65013;BME280;51715;39.432;-77.518;2023-01-01T03:31:25;99040.09;;;14.58;47.35
65013;BME280;51715;39.432;-77.518;2023-01-01T03:33:58;99039.84;;;14.60;47.10
65013;BME280;51715;39.432;-77.518;2023-01-01T03:36:32;99042.01;;;14.27;47.31
65013;BME280;51715;39.432;-77.518;2023-01-01T03:39:03;99036.31;;;14.34;47.20
65013;BME280;51715;39.432;-77.518;2023-01-01T03:41:37;99046.82;;;14.05;47.82
65013;BME280;51715;39.432;-77.518;2023-01-01T03:44:10;99041.90;;;13.76;47.55
65013;BME280;51715;39.432;-77.518;2023-01-01T03:46:40;99037.91;;;13.81;47.31
65013;BME280;51715;39.432;-77.518;2023-01-01T03:49:10;99034.64;;;13.77;47.21
65013;BME280;51715;39.432;-77.518;2023-01-01T03:51:53;99032.06;;;13.77;47.53
65013;BME280;51715;39.432;-77.518;2023-01-01T03:54:32;99039.79;;;13.94;47.36
65013;BME280;51715;39.432;-77.518;2023-01-01T03:57:09;99048.27;;;13.35;47.42
65013;BME280;51715;39.432;-77.518;2023-01-01T03:59:45;99046.85;;;13.32;47.25
65013;BME280;51715;39.432;-77.518;2023-01-01T04:02:19;99038.92;;;13.01;48.94
65013;BME280;51715;39.432;-77.518;2023-01-01T04:04:49;99032.04;;;12.85;47.98
65013;BME280;51715;39.432;-77.518;2023-01-01T04:07:17;99033.34;;;13.17;47.30
65013;BME280;51715;39.432;-77.518;2023-01-01T04:09:48;99045.44;;;12.80;47.94
65013;BME280;51715;39.432;-77.518;2023-01-01T04:12:18;99044.21;;;12.81;48.11
65013;BME280;51715;39.432;-77.518;2023-01-01T04:14:48;99051.68;;;12.80;47.22
65013;BME280;51715;39.432;-77.518;2023-01-01T04:17:17;99049.11;;;12.68;47.47
65013;BME280;51715;39.432;-77.518;2023-01-01T04:19:45;99045.03;;;12.42;47.93
65013;BME280;51715;39.432;-77.518;2023-01-01T04:22:13;99052.13;;;12.45;47.54
65013;BME280;51715;39.432;-77.518;2023-01-01T04:24:41;99053.48;;;12.43;47.72
65013;BME280;51715;39.432;-77.518;2023-01-01T04:27:09;99047.67;;;12.18;47.28
65013;BME280;51715;39.432;-77.518;2023-01-01T04:29:37;99044.68;;;12.50;47.13
65013;BME280;51715;39.432;-77.518;2023-01-01T04:32:07;99045.24;;;12.42;47.39
65013;BME280;51715;39.432;-77.518;2023-01-01T04:34:35;99030.43;;;12.02;46.54
65013;BME280;51715;39.432;-77.518;2023-01-01T04:37:03;99038.77;;;11.66;47.93
65013;BME280;51715;39.432;-77.518;2023-01-01T04:39:32;99038.52;;;11.75;48.24
65013;BME280;51715;39.432;-77.518;2023-01-01T04:42:00;99051.36;;;11.56;47.59
65013;BME280;51715;39.432;-77.518;2023-01-01T04:44:28;99055.90;;;11.69;47.84
65013;BME280;51715;39.432;-77.518;2023-01-01T04:46:56;99066.93;;;11.48;47.80
65013;BME280;51715;39.432;-77.518;2023-01-01T04:49:25;99078.07;;;11.72;48.54
65013;BME280;51715;39.432;-77.518;2023-01-01T04:51:53;99074.79;;;11.38;49.39
65013;BME280;51715;39.432;-77.518;2023-01-01T04:54:21;99081.57;;;11.57;49.18
65013;BME280;51715;39.432;-77.518;2023-01-01T04:56:49;99082.50;;;11.54;48.52
65013;BME280;51715;39.432;-77.518;2023-01-01T04:59:17;99080.77;;;11.78;48.10
65013;BME280;51715;39.432;-77.518;2023-01-01T05:04:01;99080.78;;;11.60;46.39
65013;BME280;51715;39.432;-77.518;2023-01-01T05:06:29;99080.23;;;11.63;46.49
65013;BME280;51715;39.432;-77.518;2023-01-01T05:08:58;99076.38;;;11.63;46.16
65013;BME280;51715;39.432;-77.518;2023-01-01T05:11:27;99080.66;;;11.75;47.21
65013;BME280;51715;39.432;-77.518;2023-01-01T05:13:58;99090.18;;;12.25;47.29
65013;BME280;51715;39.432;-77.518;2023-01-01T05:16:30;99091.06;;;12.17;48.65
65013;BME280;51715;39.432;-77.518;2023-01-01T05:18:59;99089.56;;;11.96;47.69
65013;BME280;51715;39.432;-77.518;2023-01-01T05:21:31;99088.85;;;11.96;48.10
65013;BME280;51715;39.432;-77.518;2023-01-01T05:24:01;99094.94;;;11.91;47.76
65013;BME280;51715;39.432;-77.518;2023-01-01T05:26:32;99095.38;;;12.06;47.16
65013;BME280;51715;39.432;-77.518;2023-01-01T05:29:01;99100.00;;;11.69;47.56
65013;BME280;51715;39.432;-77.518;2023-01-01T05:31:32;99109.69;;;11.66;47.78
65013;BME280;51715;39.432;-77.518;2023-01-01T05:34:00;99111.25;;;11.55;47.28
65013;BME280;51715;39.432;-77.518;2023-01-01T05:36:30;99115.47;;;11.53;47.09
65013;BME280;51715;39.432;-77.518;2023-01-01T05:38:58;99119.67;;;11.42;47.34
65013;BME280;51715;39.432;-77.518;2023-01-01T05:41:27;99123.49;;;11.62;47.06
65013;BME280;51715;39.432;-77.518;2023-01-01T05:43:55;99126.56;;;11.26;47.14
65013;BME280;51715;39.432;-77.518;2023-01-01T05:46:24;99126.99;;;11.19;46.67
65013;BME280;51715;39.432;-77.518;2023-01-01T05:48:53;99130.96;;;11.11;47.24
65013;BME280;51715;39.432;-77.518;2023-01-01T05:51:23;99133.58;;;11.07;46.71
65013;BME280;51715;39.432;-77.518;2023-01-01T05:53:52;99134.68;;;11.14;46.50
65013;BME280;51715;39.432;-77.518;2023-01-01T05:56:21;99132.40;;;11.16;46.23
65013;BME280;51715;39.432;-77.518;2023-01-01T05:58:50;99130.21;;;11.09;46.16
65013;BME280;51715;39.432;-77.518;2023-01-01T06:01:20;99128.78;;;10.79;46.15
65013;BME280;51715;39.432;-77.518;2023-01-01T06:03:49;99130.26;;;10.78;45.95
65013;BME280;51715;39.432;-77.518;2023-01-01T06:06:19;99125.40;;;10.68;46.05
65013;BME280;51715;39.432;-77.518;2023-01-01T06:08:50;99119.60;;;10.52;47.22
65013;BME280;51715;39.432;-77.518;2023-01-01T06:11:20;99122.86;;;10.60;46.68
65013;BME280;51715;39.432;-77.518;2023-01-01T06:13:50;99128.65;;;10.49;46.58
65013;BME280;51715;39.432;-77.518;2023-01-01T06:16:19;99132.73;;;10.39;46.98
65013;BME280;51715;39.432;-77.518;2023-01-01T06:18:48;99134.33;;;10.46;46.71
65013;BME280;51715;39.432;-77.518;2023-01-01T06:21:17;99143.80;;;10.50;46.51
65013;BME280;51715;39.432;-77.518;2023-01-01T06:23:46;99145.27;;;10.26;46.29
65013;BME280;51715;39.432;-77.518;2023-01-01T06:26:16;99143.31;;;9.98;46.26
65013;BME280;51715;39.432;-77.518;2023-01-01T06:28:46;99138.19;;;9.99;46.62
65013;BME280;51715;39.432;-77.518;2023-01-01T06:31:16;99135.09;;;10.16;46.66
65013;BME280;51715;39.432;-77.518;2023-01-01T06:33:45;99140.33;;;10.14;46.60
65013;BME280;51715;39.432;-77.518;2023-01-01T06:36:14;99146.45;;;9.56;46.94
65013;BME280;51715;39.432;-77.518;2023-01-01T06:38:46;99151.32;;;10.05;46.87
65013;BME280;51715;39.432;-77.518;2023-01-01T06:41:16;99148.90;;;9.96;46.95
65013;BME280;51715;39.432;-77.518;2023-01-01T06:43:45;99142.94;;;9.88;46.41
65013;BME280;51715;39.432;-77.518;2023-01-01T06:46:16;99153.98;;;9.10;48.89
65013;BME280;51715;39.432;-77.518;2023-01-01T06:48:46;99151.14;;;9.25;50.88
65013;BME280;51715;39.432;-77.518;2023-01-01T06:51:16;99160.06;;;9.51;49.65
65013;BME280;51715;39.432;-77.518;2023-01-01T06:53:44;99162.33;;;9.75;48.19
65013;BME280;51715;39.432;-77.518;2023-01-01T06:56:12;99161.04;;;9.83;47.77
65013;BME280;51715;39.432;-77.518;2023-01-01T06:58:41;99171.50;;;8.24;51.22
65013;BME280;51715;39.432;-77.518;2023-01-01T07:01:11;99177.86;;;9.19;49.37
65013;BME280;51715;39.432;-77.518;2023-01-01T07:03:41;99174.20;;;9.28;48.30
65013;BME280;51715;39.432;-77.518;2023-01-01T07:06:10;99168.25;;;9.53;48.09
65013;BME280;51715;39.432;-77.518;2023-01-01T07:08:39;99168.43;;;9.44;48.73
65013;BME280;51715;39.432;-77.518;2023-01-01T07:11:08;99176.65;;;9.55;47.86
65013;BME280;51715;39.432;-77.518;2023-01-01T07:13:36;99176.91;;;9.64;47.68
65013;BME280;51715;39.432;-77.518;2023-01-01T07:16:05;99174.14;;;9.50;47.77
65013;BME280;51715;39.432;-77.518;2023-01-01T07:18:33;99172.99;;;9.13;48.50
65013;BME280;51715;39.432;-77.518;2023-01-01T07:21:02;99177.78;;;9.93;48.57
65013;BME280;51715;39.432;-77.518;2023-01-01T07:23:33;99179.15;;;9.81;47.93
65013;BME280;51715;39.432;-77.518;2023-01-01T07:26:02;99186.46;;;9.73;48.01
65013;BME280;51715;39.432;-77.518;2023-01-01T07:28:30;99179.68;;;9.49;48.66
65013;BME280;51715;39.432;-77.518;2023-01-01T07:30:58;99184.09;;;9.08;52.52
65013;BME280;51715;39.432;-77.518;2023-01-01T07:33:27;99184.90;;;9.32;52.64
65013;BME280;51715;39.432;-77.518;2023-01-01T07:35:54;99187.74;;;9.37;53.26
65013;BME280;51715;39.432;-77.518;2023-01-01T07:38:22;99197.62;;;9.63;53.32
65013;BME280;51715;39.432;-77.518;2023-01-01T07:40:50;99196.62;;;10.22;53.12
65013;BME280;51715;39.432;-77.518;2023-01-01T07:43:19;99203.95;;;10.97;52.25
65013;BME280;51715;39.432;-77.518;2023-01-01T07:45:47;99208.67;;;11.44;51.00
65013;BME280;51715;39.432;-77.518;2023-01-01T07:48:15;99214.27;;;11.00;51.90
65013;BME280;51715;39.432;-77.518;2023-01-01T07:50:43;99215.73;;;11.22;52.40
65013;BME280;51715;39.432;-77.518;2023-01-01T07:53:11;99222.29;;;11.03;52.03
65013;BME280;51715;39.432;-77.518;2023-01-01T07:55:40;99229.32;;;11.41;51.84
65013;BME280;51715;39.432;-77.518;2023-01-01T07:58:09;99235.32;;;11.92;50.48
65013;BME280;51715;39.432;-77.518;2023-01-01T08:00:38;99237.77;;;11.59;49.99
65013;BME280;51715;39.432;-77.518;2023-01-01T08:03:06;99241.65;;;11.68;50.31
65013;BME280;51715;39.432;-77.518;2023-01-01T08:05:36;99247.28;;;12.10;49.26
65013;BME280;51715;39.432;-77.518;2023-01-01T08:08:05;99250.32;;;11.61;50.51
65013;BME280;51715;39.432;-77.518;2023-01-01T08:10:33;99262.87;;;11.43;51.04
65013;BME280;51715;39.432;-77.518;2023-01-01T08:13:02;99268.97;;;11.67;49.62
65013;BME280;51715;39.432;-77.518;2023-01-01T08:15:31;99274.11;;;11.58;49.45
65013;BME280;51715;39.432;-77.518;2023-01-01T08:18:01;99269.93;;;11.98;49.12
65013;BME280;51715;39.432;-77.518;2023-01-01T08:20:30;99277.98;;;11.84;49.23
65013;BME280;51715;39.432;-77.518;2023-01-01T08:22:59;99277.97;;;12.06;49.00
65013;BME280;51715;39.432;-77.518;2023-01-01T08:25:27;99285.22;;;12.13;48.92
65013;BME280;51715;39.432;-77.518;2023-01-01T08:27:55;99287.45;;;11.82;48.23
65013;BME280;51715;39.432;-77.518;2023-01-01T08:30:23;99286.28;;;12.17;48.34
65013;BME280;51715;39.432;-77.518;2023-01-01T08:32:52;99283.59;;;12.17;47.64
65013;BME280;51715;39.432;-77.518;2023-01-01T08:35:20;99292.00;;;11.83;48.36
65013;BME280;51715;39.432;-77.518;2023-01-01T08:37:47;99289.88;;;11.88;48.59
65013;BME280;51715;39.432;-77.518;2023-01-01T08:40:15;99289.64;;;11.97;48.89
65013;BME280;51715;39.432;-77.518;2023-01-01T08:42:44;99293.60;;;11.96;48.65
65013;BME280;51715;39.432;-77.518;2023-01-01T08:45:11;99288.73;;;11.83;48.26
65013;BME280;51715;39.432;-77.518;2023-01-01T08:47:39;99289.51;;;12.18;47.92
65013;BME280;51715;39.432;-77.518;2023-01-01T08:50:08;99285.06;;;12.08;47.72
65013;BME280;51715;39.432;-77.518;2023-01-01T08:52:36;99283.11;;;12.06;47.86
65013;BME280;51715;39.432;-77.518;2023-01-01T08:55:06;99283.35;;;12.15;47.43
65013;BME280;51715;39.432;-77.518;2023-01-01T08:57:34;99284.90;;;12.07;46.78
65013;BME280;51715;39.432;-77.518;2023-01-01T09:00:04;99289.49;;;12.30;46.30
65013;BME280;51715;39.432;-77.518;2023-01-01T09:02:33;99287.98;;;12.45;47.03
65013;BME280;51715;39.432;-77.518;2023-01-01T09:05:01;99289.60;;;12.06;46.59
65013;BME280;51715;39.432;-77.518;2023-01-01T09:07:30;99296.91;;;11.99;46.59
65013;BME280;51715;39.432;-77.518;2023-01-01T09:09:58;99299.45;;;11.64;46.78
65013;BME280;51715;39.432;-77.518;2023-01-01T09:12:27;99299.92;;;11.81;46.92
65013;BME280;51715;39.432;-77.518;2023-01-01T09:14:55;99295.29;;;11.79;46.97
65013;BME280;51715;39.432;-77.518;2023-01-01T09:17:23;99291.27;;;11.52;46.81
65013;BME280;51715;39.432;-77.518;2023-01-01T09:19:51;99289.61;;;11.61;46.24
65013;BME280;51715;39.432;-77.518;2023-01-01T09:22:20;99289.08;;;11.59;46.36
65013;BME280;51715;39.432;-77.518;2023-01-01T09:24:48;99294.39;;;11.46;46.30
65013;BME280;51715;39.432;-77.518;2023-01-01T09:27:17;99288.65;;;11.32;45.97
65013;BME280;51715;39.432;-77.518;2023-01-01T09:29:45;99286.98;;;11.14;45.81
65013;BME280;51715;39.432;-77.518;2023-01-01T09:32:13;99287.22;;;10.79;46.13
65013;BME280;51715;39.432;-77.518;2023-01-01T09:34:42;99297.58;;;10.57;45.96
65013;BME280;51715;39.432;-77.518;2023-01-01T09:37:10;99295.27;;;10.73;46.84
65013;BME280;51715;39.432;-77.518;2023-01-01T09:39:38;99299.09;;;10.07;48.25
65013;BME280;51715;39.432;-77.518;2023-01-01T09:42:21;99305.52;;;10.43;48.60
65013;BME280;51715;39.432;-77.518;2023-01-01T09:45:00;99310.36;;;10.43;49.14
65013;BME280;51715;39.432;-77.518;2023-01-01T09:47:31;99311.44;;;9.61;50.52
65013;BME280;51715;39.432;-77.518;2023-01-01T09:50:03;99318.02;;;10.19;49.51
65013;BME280;51715;39.432;-77.518;2023-01-01T09:52:40;99317.83;;;10.82;49.76
65013;BME280;51715;39.432;-77.518;2023-01-01T09:55:20;99320.68;;;10.66;50.38
65013;BME280;51715;39.432;-77.518;2023-01-01T09:57:49;99324.11;;;10.39;50.21
65013;BME280;51715;39.432;-77.518;2023-01-01T10:00:18;99327.34;;;9.86;52.71
65013;BME280;51715;39.432;-77.518;2023-01-01T10:02:57;99333.80;;;10.13;53.03
65013;BME280;51715;39.432;-77.518;2023-01-01T10:05:36;99328.25;;;10.58;51.98
65013;BME280;51715;39.432;-77.518;2023-01-01T10:08:18;99322.48;;;11.11;50.17
65013;BME280;51715;39.432;-77.518;2023-01-01T10:10:54;99320.85;;;11.26;49.95
65013;BME280;51715;39.432;-77.518;2023-01-01T10:13:31;99315.54;;;11.38;49.43
65013;BME280;51715;39.432;-77.518;2023-01-01T10:16:04;99315.39;;;11.60;48.61
65013;BME280;51715;39.432;-77.518;2023-01-01T10:18:37;99317.38;;;11.69;48.17
65013;BME280;51715;39.432;-77.518;2023-01-01T10:21:11;99321.28;;;11.63;47.75
65013;BME280;51715;39.432;-77.518;2023-01-01T10:23:45;99327.21;;;11.75;47.49
65013;BME280;51715;39.432;-77.518;2023-01-01T10:26:18;99330.76;;;11.41;47.70
65013;BME280;51715;39.432;-77.518;2023-01-01T10:28:54;99336.39;;;11.55;47.79
65013;BME280;51715;39.432;-77.518;2023-01-01T10:31:30;99337.82;;;11.14;49.28
65013;BME280;51715;39.432;-77.518;2023-01-01T10:34:14;99331.28;;;11.23;49.36
65013;BME280;51715;39.432;-77.518;2023-01-01T10:36:44;99334.29;;;11.30;48.23
65013;BME280;51715;39.432;-77.518;2023-01-01T10:39:14;99345.12;;;11.67;47.47
65013;BME280;51715;39.432;-77.518;2023-01-01T10:41:42;99346.46;;;11.78;47.72
65013;BME280;51715;39.432;-77.518;2023-01-01T10:44:11;99355.55;;;11.85;47.45
65013;BME280;51715;39.432;-77.518;2023-01-01T10:46:43;99359.85;;;12.03;46.90
65013;BME280;51715;39.432;-77.518;2023-01-01T10:49:14;99363.88;;;12.14;46.20
65013;BME280;51715;39.432;-77.518;2023-01-01T10:51:44;99365.28;;;12.07;45.80
65013;BME280;51715;39.432;-77.518;2023-01-01T10:54:31;99370.16;;;11.92;45.60
65013;BME280;51715;39.432;-77.518;2023-01-01T10:57:11;99370.33;;;11.91;45.34
65013;BME280;51715;39.432;-77.518;2023-01-01T10:59:41;99373.12;;;11.80;45.82
65013;BME280;51715;39.432;-77.518;2023-01-01T11:02:17;99379.58;;;11.75;45.16
65013;BME280;51715;39.432;-77.518;2023-01-01T11:04:47;99383.71;;;11.66;45.86
65013;BME280;51715;39.432;-77.518;2023-01-01T11:07:23;99386.96;;;12.12;45.51
65013;BME280;51715;39.432;-77.518;2023-01-01T11:10:00;99388.00;;;11.70;45.43
65013;BME280;51715;39.432;-77.518;2023-01-01T11:12:35;99385.80;;;11.81;45.23
65013;BME280;51715;39.432;-77.518;2023-01-01T11:15:05;99388.84;;;11.82;45.20
65013;BME280;51715;39.432;-77.518;2023-01-01T11:17:35;99391.74;;;11.85;45.02
65013;BME280;51715;39.432;-77.518;2023-01-01T11:20:06;99390.28;;;11.74;44.84
65013;BME280;51715;39.432;-77.518;2023-01-01T11:22:36;99392.64;;;11.61;45.01
65013;BME280;51715;39.432;-77.518;2023-01-01T11:25:17;99396.36;;;11.54;45.07
65013;BME280;51715;39.432;-77.518;2023-01-01T11:27:46;99400.94;;;11.54;44.97
65013;BME280;51715;39.432;-77.518;2023-01-01T11:30:26;99401.43;;;11.59;45.28
65013;BME280;51715;39.432;-77.518;2023-01-01T11:32:58;99402.19;;;11.30;45.08
65013;BME280;51715;39.432;-77.518;2023-01-01T11:35:29;99408.83;;;11.38;45.05
65013;BME280;51715;39.432;-77.518;2023-01-01T11:37:59;99415.52;;;11.39;45.40
65013;BME280;51715;39.432;-77.518;2023-01-01T11:40:34;99425.73;;;11.23;45.10
65013;BME280;51715;39.432;-77.518;2023-01-01T11:43:06;99429.49;;;11.60;45.04
65013;BME280;51715;39.432;-77.518;2023-01-01T11:45:39;99433.22;;;11.44;44.88
65013;BME280;51715;39.432;-77.518;2023-01-01T11:48:13;99435.45;;;11.38;44.73
65013;BME280;51715;39.432;-77.518;2023-01-01T11:50:49;99445.42;;;11.63;44.66
65013;BME280;51715;39.432;-77.518;2023-01-01T11:53:30;99458.86;;;11.05;44.58
65013;BME280;51715;39.432;-77.518;2023-01-01T11:56:05;99455.94;;;10.94;44.85
65013;BME280;51715;39.432;-77.518;2023-01-01T11:58:42;99460.69;;;11.12;44.72
65013;BME280;51715;39.432;-77.518;2023-01-01T12:01:20;99469.67;;;11.19;44.32
65013;BME280;51715;39.432;-77.518;2023-01-01T12:03:54;99476.99;;;11.15;44.68
65013;BME280;51715;39.432;-77.518;2023-01-01T12:06:29;99480.10;;;11.20;44.77
65013;BME280;51715;39.432;-77.518;2023-01-01T12:09:05;99489.32;;;10.92;44.65
65013;BME280;51715;39.432;-77.518;2023-01-01T12:11:40;99497.92;;;11.01;45.12
65013;BME280;51715;39.432;-77.518;2023-01-01T12:14:16;99503.63;;;10.74;44.91
65013;BME280;51715;39.432;-77.518;2023-01-01T12:16:51;99507.74;;;10.89;44.52
65013;BME280;51715;39.432;-77.518;2023-01-01T12:19:23;99510.16;;;11.15;44.30
65013;BME280;51715;39.432;-77.518;2023-01-01T12:21:59;99508.35;;;11.35;43.89
65013;BME280;51715;39.432;-77.518;2023-01-01T12:24:33;99508.10;;;10.80;44.15
65013;BME280;51715;39.432;-77.518;2023-01-01T12:27:15;99509.37;;;11.38;43.72
65013;BME280;51715;39.432;-77.518;2023-01-01T12:29:56;99514.32;;;11.17;43.59
65013;BME280;51715;39.432;-77.518;2023-01-01T12:32:39;99510.31;;;11.50;43.14
65013;BME280;51715;39.432;-77.518;2023-01-01T12:35:23;99513.12;;;11.66;43.32
65013;BME280;51715;39.432;-77.518;2023-01-01T12:38:10;99507.95;;;11.61;42.76
65013;BME280;51715;39.432;-77.518;2023-01-01T12:40:48;99515.14;;;12.08;42.72
65013;BME280;51715;39.432;-77.518;2023-01-01T12:43:29;99520.94;;;11.65;42.61
65013;BME280;51715;39.432;-77.518;2023-01-01T12:46:17;99517.79;;;11.81;42.52
65013;BME280;51715;39.432;-77.518;2023-01-01T12:49:01;99525.38;;;11.58;42.42
65013;BME280;51715;39.432;-77.518;2023-01-01T12:51:43;99524.11;;;11.77;42.10
65013;BME280;51715;39.432;-77.518;2023-01-01T12:55:10;99526.24;;;11.28;42.39
65013;BME280;51715;39.432;-77.518;2023-01-01T12:57:50;99524.93;;;11.32;42.69
65013;BME280;51715;39.432;-77.518;2023-01-01T13:00:20;99537.02;;;11.26;42.71
65013;BME280;51715;39.432;-77.518;2023-01-01T13:06:47;99534.02;;;11.06;43.71
65013;BME280;51715;39.432;-77.518;2023-01-01T13:09:20;99531.66;;;11.48;43.16